Time;durP1;ratioP1;P1;durP2;ratioP2;P2;SDS_P1;SDS_P2;PMS_P1;PMS_P2;Temp;Humidity;BMP_temperature;BMP_pressure;BME280_temperature;BME280_humidity;BME280_pressure;Samples;Min_cycle;Max_cycle;Signal;HPM_P1;HPM_P2
2023/04/29 05:00:45;;;;;;;3.00;2.80;;;12.30;97.20;;;;;;1741211;28;20252;-67
2023/04/29 05:01:36;;;;;;;2.97;2.78;;;12.30;97.20;;;;;;1741207;28;20199;-66
2023/04/29 05:02:27;;;;;;;2.63;2.43;;;12.30;97.20;;;;;;1741300;28;20659;-66
2023/04/29 05:03:18;;;;;;;2.90;2.70;;;12.40;97.20;;;;;;1741207;28;20685;-66
2023/04/29 05:04:10;;;;;;;3.17;2.87;;;12.40;97.20;;;;;;1741250;28;20562;-66
2023/04/29 05:05:00;;;;;;;2.75;2.55;;;12.40;97.20;;;;;;1741153;28;20210;-66
2023/04/29 05:05:55;;;;;;;3.57;2.50;;;12.40;97.20;;;;;;1741265;28;20201;-67
2023/04/29 05:06:46;;;;;;;2.78;2.58;;;12.50;97.20;;;;;;1740754;28;20199;-66
2023/04/29 05:07:38;;;;;;;5.47;2.40;;;12.50;97.20;;;;;;1741172;28;20191;-66
2023/04/29 05:08:29;;;;;;;3.00;2.25;;;12.50;97.20;;;;;;1741170;28;20445;-67
2023/04/29 05:09:21;;;;;;;2.70;2.50;;;12.60;97.20;;;;;;1741304;28;20286;-66
2023/04/29 05:10:12;;;;;;;4.30;3.00;;;12.60;97.20;;;;;;1741170;28;20464;-66
2023/04/29 05:11:04;;;;;;;3.07;2.87;;;12.60;97.20;;;;;;1741270;28;20222;-66
2023/04/29 05:11:55;;;;;;;2.97;2.78;;;12.60;97.20;;;;;;1741195;28;20210;-66
2023/04/29 05:12:47;;;;;;;2.83;2.63;;;12.70;97.20;;;;;;1741167;28;20199;-67
2023/04/29 05:13:37;;;;;;;2.90;2.70;;;12.70;97.20;;;;;;1741120;28;20829;-67
2023/04/29 05:14:29;;;;;;;3.63;2.87;;;12.70;97.20;;;;;;1741142;28;20302;-67
2023/04/29 05:15:20;;;;;;;3.22;3.03;;;12.70;97.20;;;;;;1741138;28;20206;-67
2023/04/29 05:16:13;;;;;;;3.47;3.20;;;12.80;97.20;;;;;;1741122;28;20202;-67
2023/04/29 05:17:03;;;;;;;3.70;3.42;;;12.80;97.20;;;;;;1740893;28;20195;-67
2023/04/29 05:17:55;;;;;;;4.90;4.50;;;12.80;97.20;;;;;;1741136;28;20199;-66
2023/04/29 05:18:46;;;;;;;4.75;3.95;;;12.80;97.20;;;;;;1741160;28;20202;-66
2023/04/29 05:19:38;;;;;;;4.90;4.50;;;12.80;97.20;;;;;;1741178;28;20202;-66
2023/04/29 05:20:28;;;;;;;4.70;4.30;;;12.90;97.20;;;;;;1741005;28;20219;-66
2023/04/29 05:21:20;;;;;;;5.00;4.57;;;12.90;97.20;;;;;;1741053;28;20227;-66
2023/04/29 05:22:11;;;;;;;5.47;4.95;;;12.90;97.20;;;;;;1741174;28;20199;-66
2023/04/29 05:23:02;;;;;;;4.60;4.30;;;12.90;97.20;;;;;;1741082;28;20195;-66
2023/04/29 05:23:53;;;;;;;5.43;4.93;;;12.90;97.20;;;;;;1741150;28;20207;-66
2023/04/29 05:24:47;;;;;;;4.90;4.60;;;13.00;97.20;;;;;;1741124;28;20203;-67
2023/04/29 05:25:37;;;;;;;5.57;4.68;;;13.00;97.20;;;;;;1741147;28;20206;-66
2023/04/29 05:26:29;;;;;;;4.00;3.70;;;13.00;97.20;;;;;;1740766;28;20203;-66
2023/04/29 05:27:20;;;;;;;6.65;4.30;;;13.00;97.20;;;;;;1740994;28;20686;-67
2023/04/29 05:28:12;;;;;;;4.55;4.25;;;13.00;97.20;;;;;;1741035;28;20570;-66
2023/04/29 05:29:02;;;;;;;4.00;3.70;;;13.10;97.20;;;;;;1741030;28;20202;-66
2023/04/29 05:29:54;;;;;;;3.90;3.50;;;13.10;97.20;;;;;;1741132;28;20210;-66
2023/04/29 05:30:46;;;;;;;4.65;3.30;;;13.10;97.20;;;;;;1740565;28;20726;-66
2023/04/29 05:31:39;;;;;;;4.43;3.40;;;13.10;97.20;;;;;;1741113;28;20199;-66
2023/04/29 05:32:29;;;;;;;3.65;3.42;;;13.10;97.20;;;;;;1741086;28;20207;-66
2023/04/29 05:33:21;;;;;;;3.77;3.47;;;13.20;97.20;;;;;;1741185;28;20199;-66
2023/04/29 05:34:12;;;;;;;3.83;3.10;;;13.20;97.20;;;;;;1741109;28;20261;-66
2023/04/29 05:35:04;;;;;;;3.70;3.30;;;13.20;97.20;;;;;;1741080;28;20195;-66
2023/04/29 05:35:55;;;;;;;3.38;3.13;;;13.20;97.20;;;;;;1741050;28;20203;-67
2023/04/29 05:36:46;;;;;;;6.40;3.60;;;13.30;97.20;;;;;;1740725;28;20206;-66
2023/04/29 05:37:37;;;;;;;3.40;3.10;;;13.30;97.20;;;;;;1740971;28;20227;-66
2023/04/29 05:38:29;;;;;;;2.90;2.70;;;13.30;97.20;;;;;;1741074;28;20202;-66
2023/04/29 05:39:20;;;;;;;3.13;2.92;;;13.30;97.20;;;;;;1740962;28;20195;-66
2023/04/29 05:40:12;;;;;;;4.37;3.17;;;13.40;97.20;;;;;;1741061;28;20222;-66
2023/04/29 05:41:03;;;;;;;3.78;3.20;;;13.40;97.20;;;;;;1740998;28;20255;-65
2023/04/29 05:41:55;;;;;;;3.47;3.23;;;13.40;97.20;;;;;;1740991;28;20207;-67
2023/04/29 05:42:45;;;;;;;4.82;4.38;;;13.40;97.20;;;;;;1740964;28;20468;-67
2023/04/29 05:43:37;;;;;;;5.70;5.20;;;13.40;97.20;;;;;;1741018;28;20662;-68
2023/04/29 05:44:28;;;;;;;5.43;4.93;;;13.40;97.20;;;;;;1741020;28;20207;-67
2023/04/29 05:45:19;;;;;;;5.53;4.87;;;13.40;97.20;;;;;;1740955;28;20203;-67
2023/04/29 05:46:10;;;;;;;5.07;4.67;;;13.50;97.20;;;;;;1741129;28;20210;-66
2023/04/29 05:47:02;;;;;;;8.93;5.60;;;13.50;97.20;;;;;;1740626;28;20195;-66
2023/04/29 05:47:54;;;;;;;6.55;5.95;;;13.50;97.20;;;;;;1741040;28;20216;-67
2023/04/29 05:48:45;;;;;;;5.93;5.20;;;13.50;97.20;;;;;;1741052;28;20211;-67
2023/04/29 05:49:36;;;;;;;4.80;4.40;;;13.60;97.20;;;;;;1740932;28;20283;-67
2023/04/29 05:50:27;;;;;;;6.57;4.55;;;13.70;97.20;;;;;;1740926;28;20230;-66
2023/04/29 05:51:19;;;;;;;4.77;4.40;;;13.80;97.20;;;;;;1741023;28;20646;-65
2023/04/29 05:52:10;;;;;;;4.75;4.35;;;13.80;97.20;;;;;;1741003;28;20690;-66
2023/04/29 05:53:03;;;;;;;4.45;4.05;;;13.90;97.20;;;;;;1741025;28;20195;-67
2023/04/29 05:53:54;;;;;;;4.57;4.13;;;14.00;97.20;;;;;;1740996;28;20211;-66
2023/04/29 05:54:46;;;;;;;4.17;3.77;;;14.00;97.20;;;;;;1741009;28;20249;-67
2023/04/29 05:55:36;;;;;;;3.78;3.53;;;14.10;97.20;;;;;;1741018;28;20214;-66
2023/04/29 05:56:28;;;;;;;4.07;3.77;;;14.20;97.20;;;;;;1740629;28;20277;-67
2023/04/29 05:57:19;;;;;;;3.45;3.25;;;14.20;97.20;;;;;;1740916;28;20670;-66
2023/04/29 05:58:11;;;;;;;4.27;3.87;;;14.30;97.20;;;;;;1740868;28;20665;-66
2023/04/29 05:59:01;;;;;;;4.22;3.90;;;14.40;97.20;;;;;;1740910;28;20199;-66
2023/04/29 05:59:54;;;;;;;5.13;3.90;;;14.50;97.20;;;;;;1741111;28;20199;-66
2023/04/29 06:00:44;;;;;;;5.95;3.95;;;14.50;97.20;;;;;;1740847;28;20223;-66
2023/04/29 06:01:36;;;;;;;3.57;3.27;;;14.60;97.20;;;;;;1740856;28;20313;-67
2023/04/29 06:02:28;;;;;;;4.68;3.63;;;14.70;97.20;;;;;;1740919;28;20666;-66
2023/04/29 06:03:20;;;;;;;5.60;3.75;;;14.80;97.20;;;;;;1740921;28;20199;-67
2023/04/29 06:04:11;;;;;;;3.63;3.33;;;14.90;97.20;;;;;;1741078;28;20230;-66
2023/04/29 06:05:03;;;;;;;4.45;4.10;;;14.90;97.20;;;;;;1740899;28;20601;-66
2023/04/29 06:05:55;;;;;;;4.30;4.00;;;14.90;97.20;;;;;;1741014;28;20195;-66
2023/04/29 06:06:46;;;;;;;4.50;4.20;;;15.00;97.20;;;;;;1740530;28;20211;-67
2023/04/29 06:07:38;;;;;;;4.07;3.57;;;15.00;97.20;;;;;;1740938;28;20198;-66
2023/04/29 06:08:29;;;;;;;4.90;4.50;;;15.00;97.20;;;;;;1740945;28;20448;-67
2023/04/29 06:09:21;;;;;;;5.07;4.50;;;15.00;97.20;;;;;;1741001;28;20199;-66
2023/04/29 06:10:12;;;;;;;4.35;3.95;;;15.00;97.20;;;;;;1740866;28;20845;-66
2023/04/29 06:11:04;;;;;;;4.57;4.17;;;15.00;97.20;;;;;;1741148;28;20249;-66
2023/04/29 06:11:55;;;;;;;4.20;3.90;;;14.90;97.20;;;;;;1740909;28;20593;-66
2023/04/29 06:12:49;;;;;;;4.23;3.93;;;14.90;97.20;;;;;;1740999;28;20554;-66
2023/04/29 06:13:40;;;;;;;4.40;4.10;;;14.90;97.20;;;;;;1740900;28;20941;-67
2023/04/29 06:14:32;;;;;;;4.10;3.80;;;14.80;97.20;;;;;;1740979;28;20651;-67
2023/04/29 06:15:22;;;;;;;4.22;3.92;;;14.80;97.20;;;;;;1741020;28;20687;-66
2023/04/29 06:16:14;;;;;;;4.70;4.30;;;14.70;97.20;;;;;;1740829;28;20222;-66
2023/04/29 06:17:05;;;;;;;4.35;4.05;;;14.70;97.20;;;;;;1740940;28;20630;-66
2023/04/29 06:17:58;;;;;;;5.13;4.57;;;14.60;97.20;;;;;;1740964;28;20250;-67
2023/04/29 06:18:49;;;;;;;5.10;4.00;;;14.60;97.20;;;;;;1740935;28;20866;-66
2023/04/29 06:19:40;;;;;;;4.30;3.90;;;14.60;97.20;;;;;;1740940;28;20199;-67
2023/04/29 06:20:31;;;;;;;3.78;3.47;;;14.60;97.20;;;;;;1740888;28;20465;-66
2023/04/29 06:21:23;;;;;;;4.33;4.03;;;14.50;97.20;;;;;;1740827;28;20223;-66
2023/04/29 06:22:14;;;;;;;3.97;3.67;;;14.50;97.20;;;;;;1741066;28;20214;-67
2023/04/29 06:23:06;;;;;;;4.33;3.90;;;14.40;97.20;;;;;;1740912;28;20213;-66
2023/04/29 06:23:56;;;;;;;4.93;4.53;;;14.40;97.20;;;;;;1740939;28;20230;-66
2023/04/29 06:24:48;;;;;;;9.07;4.40;;;14.40;97.20;;;;;;1740909;28;20298;-66
2023/04/29 06:25:39;;;;;;;4.25;3.95;;;14.40;97.20;;;;;;1740989;28;20446;-66
2023/04/29 06:26:31;;;;;;;4.13;3.83;;;14.30;97.20;;;;;;1740647;28;20199;-66
2023/04/29 06:27:21;;;;;;;4.20;3.80;;;14.30;97.20;;;;;;1740829;28;20203;-66
2023/04/29 06:28:13;;;;;;;4.87;4.10;;;14.30;97.20;;;;;;1741007;28;20195;-66
2023/04/29 06:29:04;;;;;;;4.10;3.80;;;14.40;97.20;;;;;;1740891;28;20206;-66
2023/04/29 06:29:56;;;;;;;4.13;3.53;;;14.40;97.20;;;;;;1740914;28;20230;-67
2023/04/29 06:30:46;;;;;;;4.00;3.70;;;14.40;97.20;;;;;;1740536;28;20231;-67
2023/04/29 06:31:38;;;;;;;4.20;3.90;;;14.40;97.20;;;;;;1740890;28;20658;-67
2023/04/29 06:32:29;;;;;;;4.05;3.75;;;14.40;97.20;;;;;;1740874;28;20552;-66
2023/04/29 06:33:22;;;;;;;4.20;3.90;;;14.40;97.20;;;;;;1740842;28;20195;-66
2023/04/29 06:34:13;;;;;;;4.00;3.70;;;14.50;97.20;;;;;;1740999;28;20210;-65
2023/04/29 06:35:05;;;;;;;5.93;4.30;;;14.50;97.20;;;;;;1740938;28;20209;-65
2023/04/29 06:35:56;;;;;;;4.15;3.85;;;14.60;97.20;;;;;;1740951;28;20221;-66
2023/04/29 06:36:47;;;;;;;5.00;4.00;;;14.70;97.20;;;;;;1740571;28;20199;-66
2023/04/29 06:37:38;;;;;;;4.28;3.88;;;14.80;97.20;;;;;;1740883;28;20234;-67
2023/04/29 06:38:30;;;;;;;4.67;3.70;;;14.90;97.20;;;;;;1740913;28;20199;-66
2023/04/29 06:39:20;;;;;;;8.50;3.63;;;15.00;97.20;;;;;;1740900;28;20689;-66
2023/04/29 06:40:13;;;;;;;3.77;3.57;;;15.10;97.20;;;;;;1740969;28;20654;-66
2023/04/29 06:41:03;;;;;;;4.40;4.10;;;15.10;97.20;;;;;;1740957;28;20282;-66
2023/04/29 06:41:57;;;;;;;5.03;4.63;;;15.20;97.20;;;;;;1740834;28;20247;-67
2023/04/29 06:42:48;;;;;;;4.75;3.67;;;15.20;97.20;;;;;;1740907;28;20216;-66
2023/04/29 06:43:42;;;;;;;4.57;4.17;;;15.30;97.20;;;;;;1740902;28;20291;-67
2023/04/29 06:44:32;;;;;;;5.30;4.80;;;15.30;97.20;;;;;;1741065;28;20695;-68
2023/04/29 06:45:24;;;;;;;3.80;3.50;;;15.40;97.20;;;;;;1740895;28;20620;-66
2023/04/29 06:46:15;;;;;;;3.97;3.67;;;15.40;97.20;;;;;;1740618;28;20591;-66
2023/04/29 06:47:07;;;;;;;4.90;4.50;;;15.50;97.20;;;;;;1740943;28;20619;-66
2023/04/29 06:47:57;;;;;;;5.50;4.20;;;15.50;97.20;;;;;;1740857;28;20203;-66
2023/04/29 06:48:51;;;;;;;4.60;4.20;;;15.50;97.20;;;;;;1740953;28;20210;-66
2023/04/29 06:49:42;;;;;;;4.50;4.20;;;15.50;97.20;;;;;;1740928;28;20210;-66
2023/04/29 06:50:35;;;;;;;4.50;4.10;;;15.50;97.20;;;;;;1740936;28;20225;-67
2023/04/29 06:51:26;;;;;;;4.70;4.40;;;15.50;97.20;;;;;;1741056;28;20199;-66
2023/04/29 06:52:18;;;;;;;3.88;3.60;;;15.60;97.20;;;;;;1740865;28;20202;-66
2023/04/29 06:53:09;;;;;;;4.28;3.92;;;15.60;97.20;;;;;;1740837;28;20211;-67
2023/04/29 06:54:01;;;;;;;4.70;4.33;;;15.60;97.20;;;;;;1740815;28;20192;-66
2023/04/29 06:54:51;;;;;;;4.15;3.83;;;15.60;97.20;;;;;;1740928;28;20660;-67
2023/04/29 06:55:45;;;;;;;5.17;4.77;;;15.60;97.20;;;;;;1740870;28;20203;-66
2023/04/29 06:56:35;;;;;;;4.10;3.78;;;15.70;97.20;;;;;;1740422;28;20599;-66
2023/04/29 06:57:27;;;;;;;3.90;3.70;;;15.70;97.20;;;;;;1740776;28;20573;-65
2023/04/29 06:58:18;;;;;;;4.15;3.85;;;15.70;97.20;;;;;;1740823;28;20234;-67
2023/04/29 06:59:11;;;;;;;4.23;3.93;;;15.70;97.20;;;;;;1740827;28;20202;-67
2023/04/29 07:00:03;;;;;;;4.47;4.18;;;15.70;97.20;;;;;;1740828;28;20521;-66
2023/04/29 07:00:55;;;;;;;4.28;3.97;;;15.70;97.20;;;;;;1740814;28;20654;-67
2023/04/29 07:01:45;;;;;;;5.15;4.82;;;15.80;97.20;;;;;;1741711;28;20222;-67
2023/04/29 07:02:38;;;;;;;8.20;4.40;;;15.80;97.20;;;;;;1742027;28;20199;-66
2023/04/29 07:03:29;;;;;;;4.50;4.20;;;15.90;97.20;;;;;;1742126;28;20203;-68
2023/04/29 07:04:22;;;;;;;4.37;4.03;;;16.00;97.20;;;;;;1742058;28;20195;-66
2023/04/29 07:05:13;;;;;;;5.28;4.82;;;16.00;97.20;;;;;;1742103;28;20469;-66
2023/04/29 07:06:05;;;;;;;4.90;4.60;;;16.10;97.20;;;;;;1741982;28;20202;-66
2023/04/29 07:06:55;;;;;;;5.30;4.90;;;16.20;97.20;;;;;;1741582;28;20628;-67
2023/04/29 07:07:47;;;;;;;5.10;4.53;;;16.20;97.20;;;;;;1742013;28;20273;-66
2023/04/29 07:08:38;;;;;;;4.88;4.57;;;16.30;97.20;;;;;;1742062;28;20620;-67
2023/04/29 07:09:29;;;;;;;4.93;4.63;;;16.30;97.20;;;;;;1742042;28;20198;-66
2023/04/29 07:10:20;;;;;;;4.70;4.40;;;16.30;97.20;;;;;;1741895;28;20448;-65
2023/04/29 07:11:12;;;;;;;5.50;5.00;;;16.30;97.20;;;;;;1741981;28;20191;-64
2023/04/29 07:12:03;;;;;;;5.15;4.82;;;16.40;97.20;;;;;;1741949;28;20218;-65
2023/04/29 07:12:55;;;;;;;5.38;4.97;;;16.40;97.20;;;;;;1742027;28;20199;-67
2023/04/29 07:13:46;;;;;;;5.35;4.95;;;16.40;97.20;;;;;;1741989;28;20199;-67
2023/04/29 07:14:37;;;;;;;5.37;4.97;;;16.40;97.20;;;;;;1741938;28;20203;-66
2023/04/29 07:15:29;;;;;;;4.70;4.40;;;16.40;97.20;;;;;;1742075;28;20681;-66
2023/04/29 07:16:21;;;;;;;5.18;4.80;;;16.40;97.20;;;;;;1741636;28;20195;-66
2023/04/29 07:17:12;;;;;;;5.00;4.60;;;16.40;97.20;;;;;;1741951;28;20203;-67
2023/04/29 07:18:04;;;;;;;4.60;4.20;;;16.40;97.20;;;;;;1741913;28;20257;-65
2023/04/29 07:18:54;;;;;;;4.40;4.03;;;16.40;97.20;;;;;;1741976;28;20214;-66
2023/04/29 07:19:47;;;;;;;4.27;3.97;;;16.50;97.20;;;;;;1742024;28;20210;-66
2023/04/29 07:20:38;;;;;;;4.90;4.50;;;16.50;97.20;;;;;;1741917;28;20273;-66
2023/04/29 07:21:30;;;;;;;4.60;4.30;;;16.50;97.20;;;;;;1741845;28;20226;-67
2023/04/29 07:22:21;;;;;;;4.40;4.18;;;16.60;97.20;;;;;;1741894;28;20207;-66
2023/04/29 07:23:13;;;;;;;4.37;4.07;;;16.60;97.20;;;;;;1742011;28;20219;-67
2023/04/29 07:24:04;;;;;;;4.75;4.35;;;16.60;97.20;;;;;;1741911;28;20937;-67
2023/04/29 07:24:56;;;;;;;5.20;4.80;;;16.70;97.20;;;;;;1741951;28;20732;-67
2023/04/29 07:25:47;;;;;;;4.43;4.07;;;16.70;97.20;;;;;;1741862;28;20261;-66
2023/04/29 07:26:39;;;;;;;4.43;4.03;;;16.70;97.20;;;;;;1741564;28;20222;-66
2023/04/29 07:27:31;;;;;;;4.50;4.20;;;16.80;97.20;;;;;;1741878;28;20210;-67
2023/04/29 07:28:23;;;;;;;4.25;3.95;;;16.80;97.20;;;;;;1741915;28;20203;-67
2023/04/29 07:29:14;;;;;;;4.45;3.97;;;16.80;97.20;;;;;;1741922;28;20223;-66
2023/04/29 07:30:06;;;;;;;4.43;4.13;;;16.90;97.20;;;;;;1741841;28;20206;-65
2023/04/29 07:30:57;;;;;;;4.32;4.05;;;16.90;97.20;;;;;;1741227;28;20227;-64
2023/04/29 07:31:49;;;;;;;4.07;3.80;;;17.00;97.20;;;;;;1741882;28;20191;-65
2023/04/29 07:32:40;;;;;;;4.38;3.95;;;17.00;97.20;;;;;;1741744;28;20210;-64
2023/04/29 07:33:31;;;;;;;4.60;4.30;;;17.10;97.20;;;;;;1742036;28;20203;-65
2023/04/29 07:34:23;;;;;;;4.05;3.75;;;17.20;97.20;;;;;;1741807;28;20442;-67
2023/04/29 07:35:16;;;;;;;4.30;4.00;;;17.30;97.20;;;;;;1741814;28;20191;-67
2023/04/29 07:36:07;;;;;;;4.20;3.90;;;17.50;97.20;;;;;;1741834;28;20199;-67
2023/04/29 07:36:59;;;;;;;4.10;3.70;;;17.60;97.20;;;;;;1741375;28;20203;-66
2023/04/29 07:37:50;;;;;;;3.78;3.58;;;17.70;97.20;;;;;;1741866;28;20206;-67
2023/04/29 07:38:42;;;;;;;4.37;4.07;;;17.80;97.20;;;;;;1741820;28;20205;-67
2023/04/29 07:39:34;;;;;;;3.97;3.78;;;17.90;97.20;;;;;;1741794;28;20438;-67
2023/04/29 07:40:26;;;;;;;3.58;3.30;;;17.90;97.20;;;;;;1741886;28;20682;-66
2023/04/29 07:41:16;;;;;;;3.20;2.92;;;17.90;97.20;;;;;;1741843;28;20207;-67
2023/04/29 07:42:08;;;;;;;3.10;2.90;;;17.90;97.20;;;;;;1741737;28;20305;-67
2023/04/29 07:43:03;;;;;;;3.20;3.00;;;17.90;97.20;;;;;;1741928;28;20207;-66
2023/04/29 07:43:55;;;;;;;3.10;2.90;;;17.90;97.20;;;;;;1741892;28;20203;-67
2023/04/29 07:44:46;;;;;;;3.45;3.15;;;18.00;97.20;;;;;;1741893;28;20233;-67
2023/04/29 07:45:38;;;;;;;2.77;2.57;;;18.10;97.20;;;;;;1741851;28;20198;-68
2023/04/29 07:46:30;;;;;;;3.10;2.80;;;18.10;97.20;;;;;;1741447;28;20195;-67
2023/04/29 07:47:21;;;;;;;2.70;2.50;;;18.20;97.20;;;;;;1741658;28;20226;-67
2023/04/29 07:48:12;;;;;;;2.78;2.58;;;18.30;97.20;;;;;;1741835;28;20207;-66
2023/04/29 07:49:05;;;;;;;3.77;2.47;;;18.30;97.20;;;;;;1741727;28;20206;-67
2023/04/29 07:49:56;;;;;;;2.70;2.50;;;18.40;97.20;;;;;;1741731;28;20211;-67
2023/04/29 07:50:50;;;;;;;2.80;2.60;;;18.40;97.20;;;;;;1741674;28;20215;-67
2023/04/29 07:51:41;;;;;;;5.05;2.58;;;18.50;97.20;;;;;;1741785;28;20521;-67
2023/04/29 07:52:32;;;;;;;2.60;2.40;;;18.60;97.20;;;;;;1741876;28;20203;-66
2023/04/29 07:53:23;;;;;;;2.78;2.60;;;18.70;97.20;;;;;;1741792;28;20201;-66
2023/04/29 07:54:17;;;;;;;2.30;2.20;;;18.70;97.20;;;;;;1741729;28;20201;-67
2023/04/29 07:55:08;;;;;;;2.80;2.50;;;18.80;97.20;;;;;;1741654;28;20252;-67
2023/04/29 07:56:04;;;;;;;2.50;2.30;;;18.80;97.20;;;;;;1741718;28;20199;-67
2023/04/29 07:56:57;;;;;;;2.60;2.47;;;18.90;97.20;;;;;;1741424;28;20698;-67
2023/04/29 07:57:48;;;;;;;2.60;2.40;;;18.90;97.20;;;;;;1741733;28;20199;-67
2023/04/29 07:58:39;;;;;;;3.00;2.30;;;18.90;97.20;;;;;;1741784;28;20227;-68
2023/04/29 07:59:31;;;;;;;2.50;2.30;;;18.90;97.20;;;;;;1741805;28;20202;-67
2023/04/29 08:00:22;;;;;;;2.22;2.10;;;18.90;97.20;;;;;;1741547;28;20203;-66
2023/04/29 08:01:14;;;;;;;2.13;2.03;;;18.90;97.20;;;;;;1741848;28;20195;-67
2023/04/29 08:02:05;;;;;;;2.08;1.98;;;18.90;97.20;;;;;;1741596;28;20924;-65
2023/04/29 08:02:57;;;;;;;2.33;1.95;;;18.90;97.20;;;;;;1741700;28;20618;-66
2023/04/29 08:03:48;;;;;;;1.88;1.77;;;18.80;97.20;;;;;;1741632;28;20671;-66
2023/04/29 08:04:41;;;;;;;2.00;1.90;;;18.80;97.20;;;;;;1741643;28;20670;-67
2023/04/29 08:05:31;;;;;;;2.25;2.05;;;18.80;97.20;;;;;;1741658;28;20294;-67
2023/04/29 08:06:24;;;;;;;1.80;1.70;;;18.80;97.20;;;;;;1741291;28;20273;-66
2023/04/29 08:07:15;;;;;;;2.28;2.08;;;18.80;97.20;;;;;;1741590;28;20206;-68
2023/04/29 08:08:07;;;;;;;1.80;1.70;;;18.70;97.20;;;;;;1741648;28;20191;-67
2023/04/29 08:08:58;;;;;;;1.92;1.83;;;18.70;97.20;;;;;;1741636;28;20234;-67
2023/04/29 08:09:49;;;;;;;1.77;1.67;;;18.70;97.20;;;;;;1741580;28;20203;-66
2023/04/29 08:10:42;;;;;;;2.10;1.88;;;18.70;97.20;;;;;;1741493;28;20487;-67
2023/04/29 08:11:33;;;;;;;2.33;1.92;;;18.70;97.20;;;;;;1741707;28;20246;-66
2023/04/29 08:12:24;;;;;;;2.00;1.90;;;18.70;97.20;;;;;;1741464;28;20199;-66
2023/04/29 08:13:16;;;;;;;2.10;2.00;;;18.70;97.20;;;;;;1740762;28;20196;-65
2023/04/29 08:14:07;;;;;;;2.10;2.00;;;18.70;97.20;;;;;;1741605;28;20207;-67
2023/04/29 08:14:59;;;;;;;2.20;1.90;;;18.70;97.20;;;;;;1741587;28;20578;-67
2023/04/29 08:15:50;;;;;;;1.85;1.75;;;18.70;97.20;;;;;;1741664;28;20203;-67
2023/04/29 08:16:42;;;;;;;2.20;2.00;;;18.70;97.20;;;;;;1741189;28;20202;-67
2023/04/29 08:17:33;;;;;;;2.10;1.98;;;18.70;97.20;;;;;;1741629;28;20249;-66
2023/04/29 08:18:24;;;;;;;2.13;1.70;;;18.70;97.20;;;;;;1741646;28;20202;-66
2023/04/29 08:19:15;;;;;;;1.77;1.67;;;18.70;97.20;;;;;;1741602;28;20445;-66
2023/04/29 08:20:08;;;;;;;1.67;1.57;;;18.80;97.20;;;;;;1741553;28;20282;-67
2023/04/29 08:20:58;;;;;;;1.77;1.67;;;18.80;97.20;;;;;;1741447;28;20220;-66
2023/04/29 08:21:52;;;;;;;1.73;1.63;;;18.80;97.20;;;;;;1741469;28;20198;-66
2023/04/29 08:22:42;;;;;;;1.65;1.55;;;18.80;97.20;;;;;;1741555;28;20333;-66
2023/04/29 08:23:34;;;;;;;1.60;1.50;;;18.80;97.20;;;;;;1741726;28;20195;-66
2023/04/29 08:24:25;;;;;;;1.63;1.50;;;18.90;97.20;;;;;;1741432;28;20204;-66
2023/04/29 08:25:17;;;;;;;1.47;1.37;;;18.90;97.20;;;;;;1741553;28;20191;-68
2023/04/29 08:26:09;;;;;;;1.73;1.63;;;18.90;97.20;;;;;;1741595;28;20455;-67
2023/04/29 08:27:00;;;;;;;1.42;1.33;;;18.90;97.20;;;;;;1741088;28;20249;-66
2023/04/29 08:27:51;;;;;;;1.58;1.48;;;18.90;97.20;;;;;;1741550;28;20207;-66
2023/04/29 08:28:43;;;;;;;1.53;1.43;;;18.90;97.20;;;;;;1741503;28;20199;-67
2023/04/29 08:29:34;;;;;;;1.90;1.70;;;18.90;97.20;;;;;;1741592;28;20655;-66
2023/04/29 08:30:25;;;;;;;1.67;1.33;;;19.00;97.20;;;;;;1741000;28;20547;-67
2023/04/29 08:31:17;;;;;;;1.50;1.40;;;19.00;97.20;;;;;;1741571;28;20695;-67
2023/04/29 08:32:09;;;;;;;1.90;1.50;;;19.10;97.20;;;;;;1741634;28;20252;-67
2023/04/29 08:32:59;;;;;;;2.00;1.80;;;19.10;97.20;;;;;;1741578;28;20203;-66
2023/04/29 08:33:51;;;;;;;1.53;1.43;;;19.10;97.20;;;;;;1741483;28;20290;-67
2023/04/29 08:34:43;;;;;;;4.15;1.50;;;19.20;97.20;;;;;;1741417;28;20203;-66
2023/04/29 08:35:37;;;;;;;1.40;1.30;;;19.20;97.20;;;;;;1741618;28;20199;-66
2023/04/29 08:36:28;;;;;;;1.70;1.60;;;19.20;97.20;;;;;;1741157;28;20617;-66
2023/04/29 08:37:21;;;;;;;1.65;1.55;;;19.20;97.20;;;;;;1741398;28;20218;-67
2023/04/29 08:38:12;;;;;;;1.42;1.33;;;19.20;97.20;;;;;;1741430;28;20207;-66
2023/04/29 08:39:04;;;;;;;3.90;1.50;;;19.20;97.20;;;;;;1741348;28;20199;-67
2023/04/29 08:39:54;;;;;;;1.40;1.30;;;19.30;97.20;;;;;;1741414;28;20228;-67
2023/04/29 08:40:46;;;;;;;2.37;1.83;;;19.30;97.20;;;;;;1741324;28;20238;-66
2023/04/29 08:41:37;;;;;;;1.67;1.58;;;19.30;97.20;;;;;;1741438;28;20229;-67
2023/04/29 08:42:35;;;;;;;3.00;1.47;;;19.40;97.20;;;;;;1741401;28;20310;-66
2023/04/29 08:43:26;;;;;;;1.40;1.30;;;19.40;97.20;;;;;;1741518;28;20203;-66
2023/04/29 08:44:18;;;;;;;1.42;1.33;;;19.40;97.20;;;;;;1741369;28;20237;-67
2023/04/29 08:45:09;;;;;;;1.40;1.25;;;19.50;97.20;;;;;;1741475;28;20206;-67
2023/04/29 08:46:02;;;;;;;1.98;1.40;;;19.50;97.20;;;;;;1741395;28;20203;-66
2023/04/29 08:46:54;;;;;;;2.95;1.27;;;19.60;97.20;;;;;;1740975;28;20199;-67
2023/04/29 08:47:48;;;;;;;1.95;1.50;;;19.70;97.20;;;;;;1741390;28;20199;-67
2023/04/29 08:48:39;;;;;;;2.05;1.20;;;19.70;97.20;;;;;;1741470;28;20207;-67
2023/04/29 08:49:32;;;;;;;5.95;1.30;;;19.80;97.20;;;;;;1741361;28;20662;-66
2023/04/29 08:50:23;;;;;;;1.60;1.50;;;19.90;97.20;;;;;;1741138;28;20294;-66
2023/04/29 08:51:15;;;;;;;2.20;1.30;;;19.90;97.20;;;;;;1741423;28;20196;-66
2023/04/29 08:52:05;;;;;;;1.40;1.30;;;20.00;97.20;;;;;;1741386;28;20433;-65
2023/04/29 08:52:58;;;;;;;1.13;1.03;;;20.10;97.20;;;;;;1741350;28;20195;-66
2023/04/29 08:53:49;;;;;;;1.88;1.30;;;20.10;97.20;;;;;;1741259;28;20473;-67
2023/04/29 08:54:41;;;;;;;1.30;1.17;;;20.20;97.20;;;;;;1741360;28;20206;-66
2023/04/29 08:55:34;;;;;;;1.60;1.50;;;20.30;97.20;;;;;;1741308;28;20446;-66
2023/04/29 08:56:27;;;;;;;1.90;1.40;;;20.30;97.20;;;;;;1741044;28;20195;-67
2023/04/29 08:57:18;;;;;;;1.23;1.13;;;20.40;97.20;;;;;;1741243;28;20203;-67
2023/04/29 08:58:13;;;;;;;1.45;1.35;;;20.40;97.20;;;;;;1741397;28;20666;-67
2023/04/29 08:59:07;;;;;;;1.75;1.20;;;20.50;97.20;;;;;;1741295;28;20679;-66
2023/04/29 09:00:00;;;;;;;3.50;1.48;;;20.50;97.20;;;;;;1741310;28;20203;-67
2023/04/29 09:00:52;;;;;;;1.50;1.40;;;20.60;97.20;;;;;;1741201;28;20775;-67
2023/04/29 09:01:49;;;;;;;1.63;1.50;;;20.70;97.20;;;;;;1741322;28;20257;-67
2023/04/29 09:02:44;;;;;;;1.33;1.23;;;20.80;97.20;;;;;;1741268;28;20227;-67
2023/04/29 09:03:44;;;;;;;1.85;1.27;;;20.90;97.20;;;;;;1741363;28;20195;-67
2023/04/29 09:04:45;;;;;;;1.38;1.27;;;20.90;97.20;;;;;;1741422;28;20269;-68
2023/04/29 09:05:40;;;;;;;1.52;1.25;;;20.90;97.20;;;;;;1741433;28;20598;-66
2023/04/29 09:06:32;;;;;;;2.53;1.30;;;20.90;97.20;;;;;;1740953;28;20203;-68
2023/04/29 09:07:24;;;;;;;2.28;1.58;;;20.90;97.20;;;;;;1741208;28;20674;-66
2023/04/29 09:08:17;;;;;;;1.30;1.20;;;21.00;97.20;;;;;;1741226;28;20211;-67
2023/04/29 09:09:09;;;;;;;1.30;1.20;;;21.00;97.20;;;;;;1741327;28;20227;-67
2023/04/29 09:10:03;;;;;;;2.60;1.38;;;21.00;97.20;;;;;;1741248;28;20210;-66
2023/04/29 09:10:55;;;;;;;1.38;1.27;;;21.00;97.20;;;;;;1741202;28;20281;-66
2023/04/29 09:11:46;;;;;;;1.52;1.23;;;21.10;97.20;;;;;;1741224;28;20203;-66
2023/04/29 09:12:38;;;;;;;1.60;1.50;;;21.10;97.20;;;;;;1741248;28;20914;-66
2023/04/29 09:13:30;;;;;;;1.50;1.33;;;21.10;97.20;;;;;;1741422;28;20202;-66
2023/04/29 09:14:23;;;;;;;3.90;1.60;;;21.10;97.20;;;;;;1741194;28;20195;-66
2023/04/29 09:15:14;;;;;;;1.27;1.17;;;21.10;97.20;;;;;;1741274;28;20207;-67
2023/04/29 09:16:10;;;;;;;1.57;1.40;;;21.10;97.20;;;;;;1741242;28;20206;-67
2023/04/29 09:17:01;;;;;;;1.95;1.83;;;21.10;97.20;;;;;;1740845;28;20441;-65
2023/04/29 09:17:53;;;;;;;2.73;1.40;;;21.20;97.20;;;;;;1741212;28;20203;-67
2023/04/29 09:18:46;;;;;;;1.50;1.40;;;21.20;97.20;;;;;;1741184;28;20259;-67
2023/04/29 09:19:38;;;;;;;1.13;1.02;;;21.30;97.20;;;;;;1741214;28;20257;-66
2023/04/29 09:20:29;;;;;;;1.27;1.17;;;21.30;97.20;;;;;;1741179;28;20231;-66
2023/04/29 09:21:22;;;;;;;1.70;1.20;;;21.40;97.20;;;;;;1741206;28;20564;-66
2023/04/29 09:22:13;;;;;;;1.80;1.10;;;21.50;97.20;;;;;;1741236;28;20199;-67
2023/04/29 09:23:05;;;;;;;1.50;1.40;;;21.60;97.20;;;;;;1741143;28;20195;-66
2023/04/29 09:23:59;;;;;;;1.30;1.20;;;21.70;97.20;;;;;;1741043;28;20218;-67
2023/04/29 09:24:50;;;;;;;1.92;1.30;;;21.70;97.20;;;;;;1741002;28;20708;-67
2023/04/29 09:25:53;;;;;;;1.23;1.13;;;21.70;97.20;;;;;;1741110;28;20684;-67
2023/04/29 09:26:44;;;;;;;2.08;1.48;;;21.80;97.20;;;;;;1740829;28;20577;-65
2023/04/29 09:27:36;;;;;;;2.03;1.50;;;21.90;97.20;;;;;;1741185;28;20545;-67
2023/04/29 09:28:26;;;;;;;1.60;1.50;;;21.90;97.20;;;;;;1741123;28;20635;-68
2023/04/29 09:29:19;;;;;;;1.50;1.40;;;22.00;97.20;;;;;;1741234;28;20203;-67
2023/04/29 09:30:11;;;;;;;1.80;1.42;;;22.00;97.20;;;;;;1741115;28;20551;-66